RKP weather

Aransas County Airport
Rockport, Texas, United States

Public forecast

Using degrees Fahrenheit for public forecast. Weather courtesy of forecast.io.

METAR (pilot weather report)

Retrieved 2019/06/17 23:53 UTC (48 minutes ago):

KRKP 172353Z AUTO 12006KT 9SM CLR 29/23 A2984 RMK AO2 SLP106 T02890228 10317 20289 55007

TAF (pilot weather forecast)

Forecast is more than 12 hours old.

Closest forecast is Corpus Christi Naval Air Station/Truax Field, 27.0 nm (50.1 km) SSW. Retrieved 2015/05/10 23:09 UTC (4 years ago):

TAF KNGP 092300Z 0923/1023 14020G30KT 9999 FEW025 SCT150 QNH2967INS TEMPO 0923/1003 BKN010 OVC030 BECMG 1003/1005 14016G22KT 8000 BR OVC010 QNH2969INS BECMG 1013/1015 15018G28KT BKN020 QNH2970INS AUTOMATED SENSOR METWATCH 0923 TIL 1111 TX30/0923Z TN25/1006Z